Terminal Aerodrome Forecast
Issued by NWS Jackson, MS

Home | Current Version | Previous Version | Text Only | Print | Product List | Glossary On
Versions: 1 2 3 4 5 6 7 8 9 10 11 12 13 14
580
FTUS44 KJAN 010540
TAFGLH
TAF
KGLH 010540Z 0106/0206 16005KT P6SM BKN045
     FM010700 15004KT P6SM VCSH BKN015 OVC025
     FM011500 22007KT P6SM BKN040=

USA.gov is the U.S. government's official web portal to all federal, state and local government web resources and services.